Time;durP1;ratioP1;P1;durP2;ratioP2;P2;SDS_P1;SDS_P2;PMS_P1;PMS_P2;Temp;Humidity;BMP_temperature;BMP_pressure;BME280_temperature;BME280_humidity;BME280_pressure;Samples;Min_cycle;Max_cycle;Signal;HPM_P1;HPM_P2
2021/08/30 00:00:08;;;;;;;;;4.67;4.00;;;;;;;;5074886;28;50878;-57
2021/08/30 00:02:34;;;;;;;;;8.33;5.67;;;;;;;;5074825;28;50865;-56
2021/08/30 00:04:59;;;;;;;;;6.00;4.33;;;;;;;;5073812;28;51147;-57
2021/08/30 00:07:24;;;;;;;;;6.00;5.33;;;;;;;;5055470;28;51949;-55
2021/08/30 00:09:49;;;;;;;;;3.33;3.00;;;;;;;;5074433;28;50901;-58
2021/08/30 00:12:15;;;;;;;;;5.33;5.00;;;;;;;;5074496;28;50903;-57
2021/08/30 00:14:40;;;;;;;;;5.00;5.00;;;;;;;;5074778;28;50856;-58
2021/08/30 00:17:05;;;;;;;;;5.67;5.00;;;;;;;;5071918;28;51813;-57
2021/08/30 00:19:34;;;;;;;;;5.67;5.67;;;;;;;;5056312;28;51093;-56
2021/08/30 00:22:00;;;;;;;;;7.00;5.67;;;;;;;;5055389;28;51157;-57
2021/08/30 00:24:26;;;;;;;;;6.00;6.00;;;;;;;;5044277;28;51272;-55
2021/08/30 00:26:54;;;;;;;;;8.00;8.00;;;;;;;;5074076;28;52205;-56
2021/08/30 00:29:24;;;;;;;;;6.67;6.33;;;;;;;;5074514;28;50936;-57
2021/08/30 00:31:50;;;;;;;;;9.33;9.33;;;;;;;;5072463;28;51173;-57
2021/08/30 00:34:16;;;;;;;;;9.00;8.33;;;;;;;;5074449;28;50962;-55
2021/08/30 00:36:41;;;;;;;;;10.00;7.67;;;;;;;;5073665;28;51782;-56
2021/08/30 00:39:06;;;;;;;;;9.00;8.00;;;;;;;;5073934;28;51077;-56
2021/08/30 00:41:31;;;;;;;;;8.33;7.67;;;;;;;;5066189;28;51082;-57
2021/08/30 00:43:56;;;;;;;;;9.67;9.67;;;;;;;;5074226;28;51166;-55
2021/08/30 00:46:22;;;;;;;;;7.67;6.33;;;;;;;;5037169;28;52118;-57
2021/08/30 00:48:47;;;;;;;;;8.67;7.33;;;;;;;;5069541;28;51057;-58
2021/08/30 00:51:17;;;;;;;;;8.00;7.00;;;;;;;;5073840;27;51073;-57
2021/08/30 00:53:44;;;;;;;;;9.00;9.00;;;;;;;;5073857;28;51284;-56
2021/08/30 00:56:09;;;;;;;;;10.33;9.00;;;;;;;;5065109;28;51140;-57
2021/08/30 00:58:34;;;;;;;;;10.00;9.33;;;;;;;;5070826;28;51184;-56
2021/08/30 01:00:59;;;;;;;;;11.00;10.00;;;;;;;;5073260;28;51132;-56
2021/08/30 01:03:25;;;;;;;;;11.67;10.00;;;;;;;;5067116;27;51042;-57
2021/08/30 01:05:53;;;;;;;;;10.67;9.00;;;;;;;;5050405;28;52863;-57
2021/08/30 01:08:30;;;;;;;;;8.00;8.00;;;;;;;;5071832;28;51109;-56
2021/08/30 01:11:09;;;;;;;;;9.67;9.00;;;;;;;;5072326;28;50888;-57
2021/08/30 01:13:58;;;;;;;;;12.33;10.33;;;;;;;;5055654;28;51162;-57
2021/08/30 01:16:25;;;;;;;;;9.33;8.67;;;;;;;;5060845;28;52057;-57
2021/08/30 01:18:51;;;;;;;;;8.33;6.00;;;;;;;;5071199;28;50993;-57
2021/08/30 01:21:26;;;;;;;;;13.33;12.67;;;;;;;;5050264;28;50932;-57
2021/08/30 01:24:00;;;;;;;;;11.33;11.33;;;;;;;;5066934;28;50906;-57
2021/08/30 01:26:27;;;;;;;;;11.67;11.33;;;;;;;;5064019;28;52062;-57
2021/08/30 01:29:11;;;;;;;;;11.67;11.00;;;;;;;;5067831;28;51085;-57
2021/08/30 01:31:43;;;;;;;;;12.00;11.33;;;;;;;;5073106;28;51047;-57
2021/08/30 01:34:09;;;;;;;;;13.00;12.00;;;;;;;;5073725;28;51042;-56
2021/08/30 01:36:35;;;;;;;;;12.00;11.00;;;;;;;;5071314;28;51006;-57
2021/08/30 01:39:00;;;;;;;;;10.33;10.33;;;;;;;;5063790;28;50914;-56
2021/08/30 01:41:27;;;;;;;;;11.00;11.00;;;;;;;;5072739;28;51176;-56
2021/08/30 01:43:53;;;;;;;;;15.67;13.67;;;;;;;;5064836;28;51199;-57
2021/08/30 01:46:18;;;;;;;;;12.00;10.00;;;;;;;;5067474;28;52106;-57
2021/08/30 01:48:50;;;;;;;;;11.67;11.33;;;;;;;;5071259;28;51068;-56
2021/08/30 01:51:17;;;;;;;;;10.33;10.33;;;;;;;;5072797;28;51096;-57
2021/08/30 01:53:44;;;;;;;;;11.00;11.00;;;;;;;;5072792;28;51409;-55
2021/08/30 01:56:10;;;;;;;;;11.33;10.67;;;;;;;;5066513;28;51180;-55
2021/08/30 02:01:01;;;;;;;;;16.67;14.33;;;;;;;;5064400;28;50998;-55
2021/08/30 02:03:27;;;;;;;;;12.33;11.33;;;;;;;;5054926;28;51307;-56
2021/08/30 02:05:52;;;;;;;;;10.00;10.00;;;;;;;;5070849;28;51004;-55
2021/08/30 02:08:19;;;;;;;;;15.33;14.33;;;;;;;;5070876;28;50907;-55
2021/08/30 02:10:45;;;;;;;;;15.33;12.33;;;;;;;;5070614;28;51179;-56
2021/08/30 02:13:14;;;;;;;;;14.33;13.00;;;;;;;;5070717;28;51019;-56
2021/08/30 02:15:40;;;;;;;;;9.33;9.33;;;;;;;;5071345;28;51901;-56
2021/08/30 02:18:13;;;;;;;;;14.00;13.00;;;;;;;;5072572;28;51203;-56
2021/08/30 02:20:43;;;;;;;;;10.00;9.33;;;;;;;;5069723;28;51101;-57
2021/08/30 02:23:08;;;;;;;;;12.00;11.33;;;;;;;;5065863;28;51319;-55
2021/08/30 02:25:34;;;;;;;;;13.33;12.00;;;;;;;;5067593;28;51491;-56
2021/08/30 02:28:00;;;;;;;;;11.67;11.00;;;;;;;;5063096;28;50923;-55
2021/08/30 02:30:34;;;;;;;;;11.33;10.00;;;;;;;;5054257;28;50919;-55
2021/08/30 02:33:02;;;;;;;;;13.00;10.00;;;;;;;;5072594;28;51305;-56
2021/08/30 02:35:30;;;;;;;;;14.33;11.67;;;;;;;;5070280;28;51030;-56
2021/08/30 02:37:56;;;;;;;;;13.33;12.67;;;;;;;;5053714;28;51054;-55
2021/08/30 02:40:24;;;;;;;;;12.67;11.67;;;;;;;;5072259;28;50977;-55
2021/08/30 02:42:50;;;;;;;;;13.00;12.00;;;;;;;;5068502;28;51256;-55
2021/08/30 02:45:16;;;;;;;;;13.00;12.33;;;;;;;;5070781;28;51880;-55
2021/08/30 02:47:41;;;;;;;;;11.67;10.67;;;;;;;;5072220;28;51095;-55
2021/08/30 02:50:08;;;;;;;;;13.67;12.67;;;;;;;;5053940;28;51066;-59
2021/08/30 02:52:34;;;;;;;;;13.00;13.00;;;;;;;;5069342;28;51100;-56
2021/08/30 02:55:00;;;;;;;;;11.33;10.33;;;;;;;;5063078;28;53042;-55
2021/08/30 02:57:26;;;;;;;;;10.33;10.33;;;;;;;;5055651;28;51148;-55
2021/08/30 02:59:52;;;;;;;;;14.00;12.00;;;;;;;;5071617;28;51025;-55
2021/08/30 03:02:21;;;;;;;;;11.33;11.33;;;;;;;;5067929;28;51287;-55
2021/08/30 03:04:46;;;;;;;;;13.67;13.00;;;;;;;;5062223;27;52847;-54
2021/08/30 03:07:11;;;;;;;;;10.67;10.67;;;;;;;;5061215;28;51054;-55
2021/08/30 03:09:37;;;;;;;;;12.33;10.00;;;;;;;;5063930;28;51000;-55
2021/08/30 03:12:02;;;;;;;;;14.67;12.00;;;;;;;;5065367;28;51228;-57
2021/08/30 03:14:28;;;;;;;;;12.67;12.00;;;;;;;;5070617;28;51947;-54
2021/08/30 03:17:01;;;;;;;;;14.00;13.33;;;;;;;;5071805;28;50997;-55
2021/08/30 03:19:28;;;;;;;;;13.67;13.67;;;;;;;;5054017;28;51328;-56
2021/08/30 03:21:54;;;;;;;;;15.67;14.67;;;;;;;;5071874;28;51016;-56
2021/08/30 03:24:20;;;;;;;;;14.33;13.67;;;;;;;;5074695;28;51899;-56
2021/08/30 03:26:46;;;;;;;;;14.00;14.00;;;;;;;;5074581;28;51104;-57
2021/08/30 03:29:12;;;;;;;;;18.00;16.67;;;;;;;;5071656;28;51223;-58
2021/08/30 03:31:38;;;;;;;;;15.00;14.33;;;;;;;;5060689;28;50912;-57
2021/08/30 03:34:04;;;;;;;;;15.00;12.00;;;;;;;;5075023;28;52151;-56
2021/08/30 03:36:29;;;;;;;;;16.33;13.67;;;;;;;;5073851;28;51015;-57
2021/08/30 03:38:58;;;;;;;;;17.00;17.00;;;;;;;;5073451;28;51258;-56
2021/08/30 03:41:24;;;;;;;;;15.33;14.33;;;;;;;;5075234;28;50936;-55
2021/08/30 03:43:50;;;;;;;;;16.75;14.50;;;;;;;;5074750;28;51059;-56
2021/08/30 03:46:16;;;;;;;;;14.00;14.00;;;;;;;;5074644;28;51179;-55
2021/08/30 03:48:42;;;;;;;;;16.00;14.33;;;;;;;;5072969;28;51060;-56
2021/08/30 03:51:08;;;;;;;;;14.67;14.00;;;;;;;;5075029;28;51228;-55
2021/08/30 03:53:34;;;;;;;;;16.00;16.00;;;;;;;;5073064;28;51845;-56
2021/08/30 03:56:00;;;;;;;;;15.67;14.00;;;;;;;;5074712;28;50870;-56
2021/08/30 03:58:26;;;;;;;;;17.33;16.33;;;;;;;;5063006;28;51105;-55
2021/08/30 04:00:53;;;;;;;;;16.33;15.33;;;;;;;;5074985;28;51017;-55
2021/08/30 04:03:18;;;;;;;;;22.00;20.33;;;;;;;;5074433;28;53328;-55
2021/08/30 04:05:45;;;;;;;;;19.00;16.00;;;;;;;;5074256;28;51041;-57
2021/08/30 04:08:10;;;;;;;;;17.25;17.00;;;;;;;;5074493;28;50895;-56
2021/08/30 04:10:36;;;;;;;;;19.00;18.25;;;;;;;;5067899;28;51343;-55
2021/08/30 04:13:02;;;;;;;;;12.50;12.50;;;;;;;;5074449;28;51006;-56
2021/08/30 04:15:29;;;;;;;;;21.00;20.00;;;;;;;;5056332;28;50888;-56
2021/08/30 04:17:54;;;;;;;;;18.75;17.00;;;;;;;;5069154;28;51076;-56
2021/08/30 04:20:19;;;;;;;;;15.25;15.25;;;;;;;;5071908;28;51256;-56
2021/08/30 04:22:44;;;;;;;;;18.00;18.00;;;;;;;;5073838;28;51143;-55
2021/08/30 04:25:10;;;;;;;;;19.75;19.75;;;;;;;;5074065;28;51032;-55
2021/08/30 04:27:35;;;;;;;;;21.75;21.75;;;;;;;;5074380;28;51002;-56
2021/08/30 04:30:00;;;;;;;;;20.50;19.75;;;;;;;;5072990;28;51412;-57
2021/08/30 04:32:31;;;;;;;;;22.00;21.00;;;;;;;;5073971;28;51417;-56
2021/08/30 04:34:56;;;;;;;;;21.25;19.75;;;;;;;;5071577;28;50987;-56
2021/08/30 04:37:22;;;;;;;;;22.50;22.00;;;;;;;;5062694;28;51168;-56
2021/08/30 04:39:47;;;;;;;;;22.50;20.25;;;;;;;;5054283;28;51069;-54
2021/08/30 04:42:12;;;;;;;;;21.25;21.00;;;;;;;;5073881;28;51885;-56
2021/08/30 04:44:38;;;;;;;;;15.75;15.50;;;;;;;;5073787;28;50903;-56
2021/08/30 04:47:05;;;;;;;;;17.75;17.00;;;;;;;;5074151;28;51060;-55
2021/08/30 04:49:30;;;;;;;;;20.75;19.50;;;;;;;;5051858;28;51264;-56
2021/08/30 04:51:55;;;;;;;;;20.00;18.75;;;;;;;;5071142;28;52098;-55
2021/08/30 04:54:21;;;;;;;;;25.25;22.00;;;;;;;;5073469;28;50942;-56
2021/08/30 04:56:46;;;;;;;;;22.00;21.50;;;;;;;;5064900;28;51159;-56
2021/08/30 04:59:12;;;;;;;;;24.25;23.00;;;;;;;;5065721;28;51217;-56
2021/08/30 05:01:37;;;;;;;;;27.50;25.75;;;;;;;;5073731;28;51677;-57
2021/08/30 05:04:02;;;;;;;;;22.50;21.50;;;;;;;;5073705;28;50961;-56
2021/08/30 05:06:28;;;;;;;;;24.50;23.50;;;;;;;;5045137;28;51440;-56
2021/08/30 05:08:53;;;;;;;;;25.00;24.00;;;;;;;;5072428;28;52725;-55
2021/08/30 05:11:18;;;;;;;;;24.75;23.75;;;;;;;;5071735;28;51954;-56
2021/08/30 05:13:43;;;;;;;;;22.25;22.00;;;;;;;;5071212;28;51010;-57
2021/08/30 05:16:08;;;;;;;;;27.50;26.50;;;;;;;;5066675;28;51014;-56
2021/08/30 05:18:34;;;;;;;;;28.50;27.25;;;;;;;;5065766;28;50989;-57
2021/08/30 05:20:59;;;;;;;;;27.00;25.75;;;;;;;;5073000;28;53117;-57
2021/08/30 05:23:24;;;;;;;;;25.00;25.00;;;;;;;;5071332;28;50949;-56
2021/08/30 05:25:49;;;;;;;;;26.00;26.00;;;;;;;;5073262;28;51134;-58
2021/08/30 05:28:14;;;;;;;;;24.00;22.00;;;;;;;;5073552;28;51312;-56
2021/08/30 05:30:40;;;;;;;;;28.50;27.00;;;;;;;;5065900;28;52061;-55
2021/08/30 05:33:05;;;;;;;;;26.50;25.50;;;;;;;;5064363;28;50953;-56
2021/08/30 05:35:30;;;;;;;;;31.25;29.75;;;;;;;;5069036;28;51303;-57
2021/08/30 05:37:56;;;;;;;;;27.50;25.25;;;;;;;;5072852;28;50999;-56
2021/08/30 05:40:21;;;;;;;;;31.50;30.00;;;;;;;;5072496;28;51109;-56
2021/08/30 05:42:46;;;;;;;;;28.00;25.00;;;;;;;;5072642;28;51108;-55
2021/08/30 05:45:11;;;;;;;;;30.25;29.25;;;;;;;;5068507;28;51238;-57
2021/08/30 05:47:36;;;;;;;;;36.50;31.75;;;;;;;;5042487;28;51193;-56
2021/08/30 05:50:02;;;;;;;;;29.25;28.00;;;;;;;;5070919;28;51264;-55
2021/08/30 05:52:27;;;;;;;;;33.75;31.00;;;;;;;;5036415;28;51035;-55
2021/08/30 05:54:52;;;;;;;;;33.50;30.00;;;;;;;;5072585;28;51077;-56
2021/08/30 05:57:18;;;;;;;;;30.25;28.25;;;;;;;;5072014;28;51082;-56
2021/08/30 05:59:43;;;;;;;;;34.50;30.75;;;;;;;;5072183;28;51837;-55
2021/08/30 06:02:10;;;;;;;;;40.75;32.00;;;;;;;;5072558;28;51037;-56
2021/08/30 06:04:35;;;;;;;;;30.50;29.00;;;;;;;;5064928;28;51144;-56
2021/08/30 06:07:01;;;;;;;;;35.25;32.00;;;;;;;;5072202;28;50850;-57
2021/08/30 06:09:27;;;;;;;;;33.75;30.75;;;;;;;;5071725;28;51715;-59
2021/08/30 06:11:52;;;;;;;;;32.00;30.00;;;;;;;;5072580;28;51075;-56
2021/08/30 06:14:18;;;;;;;;;34.75;31.25;;;;;;;;5071876;28;51044;-55
2021/08/30 06:16:43;;;;;;;;;36.00;32.75;;;;;;;;5072427;28;50861;-56
2021/08/30 06:19:08;;;;;;;;;35.00;31.50;;;;;;;;5071138;28;51270;-57
2021/08/30 06:21:33;;;;;;;;;35.00;32.00;;;;;;;;5072350;28;50974;-56
2021/08/30 06:23:59;;;;;;;;;35.75;33.00;;;;;;;;5063839;28;51234;-56
2021/08/30 06:26:24;;;;;;;;;35.50;30.00;;;;;;;;5068665;28;51071;-55
2021/08/30 06:28:49;;;;;;;;;33.50;31.75;;;;;;;;5070600;28;52062;-54
2021/08/30 06:31:14;;;;;;;;;31.50;29.75;;;;;;;;5070751;28;50990;-55
2021/08/30 06:33:39;;;;;;;;;37.50;32.75;;;;;;;;5070896;28;51029;-59
2021/08/30 06:36:05;;;;;;;;;34.50;32.00;;;;;;;;5071493;28;51264;-56
2021/08/30 06:38:30;;;;;;;;;35.75;32.00;;;;;;;;5069639;28;52132;-56
2021/08/30 06:40:55;;;;;;;;;34.50;32.00;;;;;;;;5065829;28;51020;-55
2021/08/30 06:43:21;;;;;;;;;36.25;33.00;;;;;;;;5058212;27;51128;-57
2021/08/30 06:45:46;;;;;;;;;32.25;31.25;;;;;;;;5069896;28;51162;-56
2021/08/30 06:48:11;;;;;;;;;36.25;32.75;;;;;;;;5070113;28;51720;-57
2021/08/30 06:50:36;;;;;;;;;34.50;32.25;;;;;;;;5071605;28;51008;-57
2021/08/30 06:53:01;;;;;;;;;35.00;32.00;;;;;;;;5070868;28;51363;-57
2021/08/30 06:55:27;;;;;;;;;34.50;32.00;;;;;;;;5071444;28;50948;-56
2021/08/30 06:57:52;;;;;;;;;35.50;32.00;;;;;;;;5072030;28;52414;-56
2021/08/30 07:00:18;;;;;;;;;33.25;30.75;;;;;;;;5074667;28;50998;-57
2021/08/30 07:02:43;;;;;;;;;33.50;32.00;;;;;;;;5038422;28;50957;-57
2021/08/30 07:05:08;;;;;;;;;32.50;30.00;;;;;;;;5075182;28;51303;-57
2021/08/30 07:07:34;;;;;;;;;35.50;32.00;;;;;;;;5048847;28;52062;-56
2021/08/30 07:09:59;;;;;;;;;32.00;29.00;;;;;;;;5074547;28;50975;-57
2021/08/30 07:12:25;;;;;;;;;34.50;31.50;;;;;;;;5074361;28;50882;-55
2021/08/30 07:14:50;;;;;;;;;33.25;30.00;;;;;;;;5075041;28;50860;-57
2021/08/30 07:17:15;;;;;;;;;34.50;31.75;;;;;;;;5074409;28;52230;-56
2021/08/30 07:19:40;;;;;;;;;32.25;30.25;;;;;;;;5074707;28;50833;-56
2021/08/30 07:22:05;;;;;;;;;34.00;31.75;;;;;;;;5074816;28;51227;-57
2021/08/30 07:24:31;;;;;;;;;33.00;31.25;;;;;;;;5074660;28;51329;-57
2021/08/30 07:26:56;;;;;;;;;35.00;31.75;;;;;;;;5074374;28;51301;-57
2021/08/30 07:29:21;;;;;;;;;27.00;26.25;;;;;;;;5074944;28;50927;-57
2021/08/30 07:31:46;;;;;;;;;35.50;30.75;;;;;;;;5056178;28;51078;-56
2021/08/30 07:34:12;;;;;;;;;29.50;28.50;;;;;;;;5074836;28;51292;-55
2021/08/30 07:36:37;;;;;;;;;32.25;29.00;;;;;;;;5074580;28;51036;-56
2021/08/30 07:39:04;;;;;;;;;29.50;27.50;;;;;;;;5055599;28;51132;-57
2021/08/30 07:41:29;;;;;;;;;28.75;27.50;;;;;;;;5074489;28;51122;-57
2021/08/30 07:43:54;;;;;;;;;29.75;29.00;;;;;;;;5074734;28;51101;-55
2021/08/30 07:46:20;;;;;;;;;26.75;24.25;;;;;;;;5073934;28;51814;-56
2021/08/30 07:48:45;;;;;;;;;27.50;26.00;;;;;;;;5056150;28;51080;-57
2021/08/30 07:51:10;;;;;;;;;30.50;30.00;;;;;;;;5074455;28;51586;-56
2021/08/30 07:53:36;;;;;;;;;30.00;30.00;;;;;;;;5074615;28;51020;-56
2021/08/30 07:56:01;;;;;;;;;28.50;28.00;;;;;;;;5073865;28;51277;-56
2021/08/30 07:58:26;;;;;;;;;30.50;28.25;;;;;;;;5074748;28;51024;-56
2021/08/30 08:00:51;;;;;;;;;27.25;25.00;;;;;;;;5074150;28;51159;-56
2021/08/30 08:03:16;;;;;;;;;25.25;24.75;;;;;;;;5074507;28;50924;-56
2021/08/30 08:05:42;;;;;;;;;23.00;22.00;;;;;;;;5073937;28;51373;-56
2021/08/30 08:08:07;;;;;;;;;22.00;21.00;;;;;;;;5073943;28;50912;-57
2021/08/30 08:10:32;;;;;;;;;18.67;18.67;;;;;;;;5072853;28;51163;-57
2021/08/30 08:12:57;;;;;;;;;18.33;18.33;;;;;;;;5074136;28;51103;-56
2021/08/30 08:15:23;;;;;;;;;17.67;17.33;;;;;;;;5073648;28;51834;-57
2021/08/30 08:17:48;;;;;;;;;16.33;15.33;;;;;;;;5074358;28;50867;-56
2021/08/30 08:20:14;;;;;;;;;19.67;19.00;;;;;;;;5074084;28;51212;-56
2021/08/30 08:22:39;;;;;;;;;18.33;18.33;;;;;;;;5073903;28;51278;-56
2021/08/30 08:25:06;;;;;;;;;19.33;19.00;;;;;;;;5073331;28;51955;-55
2021/08/30 08:27:31;;;;;;;;;19.67;18.67;;;;;;;;5056021;28;51034;-57
2021/08/30 08:29:57;;;;;;;;;24.00;22.67;;;;;;;;5073777;28;51411;-54
2021/08/30 08:32:22;;;;;;;;;20.00;19.00;;;;;;;;5073664;28;51272;-57
2021/08/30 08:34:48;;;;;;;;;20.00;19.33;;;;;;;;5073461;28;51210;-55
2021/08/30 08:37:13;;;;;;;;;16.00;14.67;;;;;;;;5073481;28;51088;-55
2021/08/30 08:39:38;;;;;;;;;21.33;20.00;;;;;;;;5073314;28;51680;-56
2021/08/30 08:42:04;;;;;;;;;21.00;19.00;;;;;;;;5073747;28;50883;-55
2021/08/30 08:44:29;;;;;;;;;22.33;20.00;;;;;;;;5054392;28;52241;-55
2021/08/30 08:46:55;;;;;;;;;20.00;20.00;;;;;;;;5055047;28;50982;-57
2021/08/30 08:49:20;;;;;;;;;20.67;19.67;;;;;;;;5034924;28;50951;-56
2021/08/30 08:51:45;;;;;;;;;24.33;22.33;;;;;;;;5063926;28;51357;-56
2021/08/30 08:54:11;;;;;;;;;20.67;18.00;;;;;;;;5072653;28;52764;-57
2021/08/30 08:56:36;;;;;;;;;18.33;17.67;;;;;;;;5055139;28;51201;-56
2021/08/30 08:59:01;;;;;;;;;17.67;17.00;;;;;;;;5073496;28;51166;-56
2021/08/30 09:01:27;;;;;;;;;22.25;19.25;;;;;;;;5055081;28;51248;-57
2021/08/30 09:03:55;;;;;;;;;20.67;19.33;;;;;;;;5072554;28;51805;-55
2021/08/30 09:06:25;;;;;;;;;19.00;18.67;;;;;;;;5072966;28;50902;-55
2021/08/30 09:08:53;;;;;;;;;20.33;20.33;;;;;;;;5053942;27;51291;-57
2021/08/30 09:11:23;;;;;;;;;19.00;19.00;;;;;;;;5073233;28;51458;-55
2021/08/30 09:13:57;;;;;;;;;17.67;17.00;;;;;;;;5072394;28;51801;-57
2021/08/30 09:16:24;;;;;;;;;17.00;16.33;;;;;;;;5073387;28;50999;-56
2021/08/30 09:18:49;;;;;;;;;19.67;18.33;;;;;;;;5072977;28;51205;-56
2021/08/30 09:21:16;;;;;;;;;18.00;18.00;;;;;;;;5073014;28;51234;-57
2021/08/30 09:23:42;;;;;;;;;22.33;20.00;;;;;;;;5072648;28;51090;-56
2021/08/30 09:26:17;;;;;;;;;21.00;18.00;;;;;;;;5073149;28;51025;-55
2021/08/30 09:28:48;;;;;;;;;16.33;15.00;;;;;;;;5073216;28;51335;-57
2021/08/30 09:31:13;;;;;;;;;17.00;15.00;;;;;;;;5072486;28;51017;-57
2021/08/30 09:33:45;;;;;;;;;18.33;17.33;;;;;;;;5072318;28;52694;-55
2021/08/30 09:36:10;;;;;;;;;20.67;20.00;;;;;;;;5072875;28;50950;-56
2021/08/30 09:38:36;;;;;;;;;18.67;18.00;;;;;;;;5072069;28;51046;-56
2021/08/30 09:41:09;;;;;;;;;16.67;16.67;;;;;;;;5054387;28;50899;-58
2021/08/30 09:43:34;;;;;;;;;19.00;18.33;;;;;;;;5072551;28;52207;-57
2021/08/30 09:46:00;;;;;;;;;18.00;17.00;;;;;;;;5071972;28;50887;-55
2021/08/30 09:48:25;;;;;;;;;16.00;14.67;;;;;;;;5072506;28;50950;-57
2021/08/30 09:50:50;;;;;;;;;14.67;14.33;;;;;;;;5072384;28;50980;-57
2021/08/30 09:53:15;;;;;;;;;14.33;14.00;;;;;;;;5071765;28;51807;-58
2021/08/30 09:55:41;;;;;;;;;18.67;16.33;;;;;;;;5072073;28;50958;-56
2021/08/30 09:58:06;;;;;;;;;19.00;17.67;;;;;;;;5072279;28;50846;-57
2021/08/30 10:00:33;;;;;;;;;18.33;17.33;;;;;;;;5072492;28;50891;-56
2021/08/30 10:02:59;;;;;;;;;14.67;13.33;;;;;;;;5072046;28;52013;-57
2021/08/30 10:05:26;;;;;;;;;17.67;16.67;;;;;;;;5071837;28;50985;-57
2021/08/30 10:07:55;;;;;;;;;16.67;16.33;;;;;;;;5072068;28;50986;-56
2021/08/30 10:10:21;;;;;;;;;9.00;9.00;;;;;;;;5072264;28;51187;-56
2021/08/30 10:12:47;;;;;;;;;18.67;18.00;;;;;;;;5071493;28;51120;-55
2021/08/30 10:15:12;;;;;;;;;19.00;18.33;;;;;;;;5072068;28;51093;-56
2021/08/30 10:17:44;;;;;;;;;14.00;14.00;;;;;;;;5072213;28;51012;-60
2021/08/30 10:20:12;;;;;;;;;16.00;15.00;;;;;;;;5054696;28;51201;-56
2021/08/30 10:22:38;;;;;;;;;12.00;12.00;;;;;;;;5071682;28;52061;-55
2021/08/30 10:25:13;;;;;;;;;15.67;15.00;;;;;;;;5071769;28;51238;-55
2021/08/30 10:27:38;;;;;;;;;13.67;12.67;;;;;;;;5072075;28;50845;-55
2021/08/30 10:30:13;;;;;;;;;16.00;16.00;;;;;;;;5071583;28;51477;-56
2021/08/30 10:32:39;;;;;;;;;14.33;13.00;;;;;;;;5054231;28;52566;-56
2021/08/30 10:35:18;;;;;;;;;14.00;13.67;;;;;;;;5075165;28;51164;-57
2021/08/30 10:37:51;;;;;;;;;14.33;14.33;;;;;;;;5074872;28;50879;-55
2021/08/30 10:40:17;;;;;;;;;16.00;16.00;;;;;;;;5075432;28;51117;-57
2021/08/30 10:42:42;;;;;;;;;19.67;18.00;;;;;;;;5074300;28;51266;-57
2021/08/30 10:45:09;;;;;;;;;12.00;11.00;;;;;;;;5074699;28;50986;-57
2021/08/30 10:47:35;;;;;;;;;17.67;17.33;;;;;;;;5074830;28;51106;-56
2021/08/30 10:50:01;;;;;;;;;21.00;19.67;;;;;;;;5075133;28;51026;-58
2021/08/30 10:52:36;;;;;;;;;17.00;15.33;;;;;;;;5055918;28;51095;-56
2021/08/30 10:55:01;;;;;;;;;16.00;16.00;;;;;;;;5074777;28;50895;-56
2021/08/30 10:57:36;;;;;;;;;17.00;17.00;;;;;;;;5074355;28;51024;-56
2021/08/30 11:00:04;;;;;;;;;15.67;14.67;;;;;;;;5075091;28;50971;-57
2021/08/30 11:02:37;;;;;;;;;13.33;13.00;;;;;;;;5074635;28;53094;-56
2021/08/30 11:05:02;;;;;;;;;12.00;11.33;;;;;;;;5074669;28;50970;-55
2021/08/30 11:07:27;;;;;;;;;13.00;13.00;;;;;;;;5055664;28;51473;-55
2021/08/30 11:09:53;;;;;;;;;14.00;14.00;;;;;;;;5065814;27;51004;-57
2021/08/30 11:12:18;;;;;;;;;10.67;10.67;;;;;;;;5073742;28;52158;-57
2021/08/30 11:14:53;;;;;;;;;15.50;14.50;;;;;;;;5056303;28;51100;-57
2021/08/30 11:17:24;;;;;;;;;17.00;16.67;;;;;;;;5056219;28;51161;-57
2021/08/30 11:19:52;;;;;;;;;14.67;14.67;;;;;;;;5055667;28;51262;-56
2021/08/30 11:22:17;;;;;;;;;13.00;13.00;;;;;;;;5073682;28;51102;-57
2021/08/30 11:24:43;;;;;;;;;13.67;13.00;;;;;;;;5074312;28;50973;-55
2021/08/30 11:27:14;;;;;;;;;14.33;13.67;;;;;;;;5074122;28;51110;-56
2021/08/30 11:29:50;;;;;;;;;13.00;13.00;;;;;;;;5074268;28;51172;-57
2021/08/30 11:32:16;;;;;;;;;15.00;14.67;;;;;;;;5073566;28;50963;-58
2021/08/30 11:34:42;;;;;;;;;14.00;14.00;;;;;;;;5073847;28;50886;-57
2021/08/30 11:37:09;;;;;;;;;13.00;12.00;;;;;;;;5073316;28;51141;-57
2021/08/30 11:39:35;;;;;;;;;13.00;12.33;;;;;;;;5073927;28;51107;-58
2021/08/30 11:42:03;;;;;;;;;15.33;14.00;;;;;;;;5073499;28;51580;-56
2021/08/30 11:44:30;;;;;;;;;15.00;15.00;;;;;;;;5072006;28;50846;-57
2021/08/30 11:46:56;;;;;;;;;15.67;15.67;;;;;;;;5073731;28;51081;-56
2021/08/30 11:49:22;;;;;;;;;17.33;16.67;;;;;;;;5073465;28;50903;-56
2021/08/30 11:51:47;;;;;;;;;16.33;16.33;;;;;;;;5073124;28;54512;-56
2021/08/30 11:54:17;;;;;;;;;15.67;15.67;;;;;;;;5072778;28;51536;-57
2021/08/30 11:56:50;;;;;;;;;14.00;14.00;;;;;;;;5073459;28;51117;-57
2021/08/30 11:59:23;;;;;;;;;16.00;15.67;;;;;;;;5073243;28;51228;-56
2021/08/30 12:01:49;;;;;;;;;22.00;21.00;;;;;;;;5054363;28;52685;-57
2021/08/30 12:04:16;;;;;;;;;19.00;18.67;;;;;;;;5073509;28;51050;-56
2021/08/30 12:06:52;;;;;;;;;17.33;16.67;;;;;;;;5073543;28;51125;-56
2021/08/30 12:09:18;;;;;;;;;21.50;20.50;;;;;;;;5073622;28;51281;-56
2021/08/30 12:11:51;;;;;;;;;47.75;39.25;;;;;;;;5072950;28;52091;-57
2021/08/30 12:14:16;;;;;;;;;17.67;17.67;;;;;;;;5073729;28;51188;-57
2021/08/30 12:16:43;;;;;;;;;17.33;17.33;;;;;;;;5073427;28;51254;-57
2021/08/30 12:19:09;;;;;;;;;22.33;17.00;;;;;;;;5073970;28;51292;-57
2021/08/30 12:21:39;;;;;;;;;18.00;17.67;;;;;;;;5072888;28;51229;-57
2021/08/30 12:24:06;;;;;;;;;17.00;16.67;;;;;;;;5073311;28;51098;-56
2021/08/30 12:26:31;;;;;;;;;17.67;17.67;;;;;;;;5064833;28;51029;-57
2021/08/30 12:28:58;;;;;;;;;17.00;17.00;;;;;;;;5073155;28;51025;-56
2021/08/30 12:31:24;;;;;;;;;18.33;17.33;;;;;;;;5072948;28;51997;-56
2021/08/30 12:33:59;;;;;;;;;17.33;16.00;;;;;;;;5073287;28;50910;-57
2021/08/30 12:36:24;;;;;;;;;18.33;16.67;;;;;;;;5073374;28;51130;-55
2021/08/30 12:38:49;;;;;;;;;15.00;14.67;;;;;;;;5054613;28;51332;-56
2021/08/30 12:41:15;;;;;;;;;16.67;16.33;;;;;;;;5072735;28;51945;-56
2021/08/30 12:43:45;;;;;;;;;16.00;15.00;;;;;;;;5072950;28;51025;-57
2021/08/30 12:46:10;;;;;;;;;18.33;18.33;;;;;;;;5073033;28;50897;-56
2021/08/30 12:48:36;;;;;;;;;17.00;17.00;;;;;;;;5073177;28;50906;-56
2021/08/30 12:51:01;;;;;;;;;17.00;17.00;;;;;;;;5072701;28;51076;-57
2021/08/30 12:53:26;;;;;;;;;16.33;16.00;;;;;;;;5072635;28;50999;-57
2021/08/30 12:55:51;;;;;;;;;18.00;17.33;;;;;;;;5071705;28;50819;-56
2021/08/30 12:58:17;;;;;;;;;18.67;17.00;;;;;;;;5072937;28;50927;-56
2021/08/30 13:00:43;;;;;;;;;16.00;16.00;;;;;;;;5072360;28;52047;-57
2021/08/30 13:03:08;;;;;;;;;17.33;15.67;;;;;;;;5072942;28;50918;-57
2021/08/30 13:05:39;;;;;;;;;8.00;7.00;;;;;;;;5054448;28;50966;-57
2021/08/30 13:08:04;;;;;;;;;16.67;15.67;;;;;;;;5072586;28;51109;-56
2021/08/30 13:10:30;;;;;;;;;15.67;15.67;;;;;;;;5058858;27;51096;-56
2021/08/30 13:12:55;;;;;;;;;18.33;17.00;;;;;;;;5072629;28;51035;-55
2021/08/30 13:15:21;;;;;;;;;19.25;18.25;;;;;;;;5072982;28;51128;-56
2021/08/30 13:17:47;;;;;;;;;18.33;18.33;;;;;;;;5072707;28;51090;-57
2021/08/30 13:20:13;;;;;;;;;16.00;16.00;;;;;;;;5072029;28;51732;-56
2021/08/30 13:22:39;;;;;;;;;17.00;17.00;;;;;;;;5063753;27;51095;-56
2021/08/30 13:25:05;;;;;;;;;20.00;18.33;;;;;;;;5061123;28;51272;-56
2021/08/30 13:27:32;;;;;;;;;18.67;17.67;;;;;;;;5039943;28;50931;-56
2021/08/30 13:29:57;;;;;;;;;18.00;17.33;;;;;;;;5068450;28;51091;-56
2021/08/30 13:32:23;;;;;;;;;15.33;15.00;;;;;;;;5053332;28;51209;-56
2021/08/30 13:34:48;;;;;;;;;16.00;16.00;;;;;;;;5056363;28;50867;-56
2021/08/30 13:37:13;;;;;;;;;19.00;18.00;;;;;;;;5061222;28;51414;-55
2021/08/30 13:39:38;;;;;;;;;15.67;14.67;;;;;;;;5071460;28;51864;-57
2021/08/30 13:42:04;;;;;;;;;17.00;14.67;;;;;;;;5072393;28;51045;-56
2021/08/30 13:44:29;;;;;;;;;15.33;15.00;;;;;;;;5063251;28;51041;-56
2021/08/30 13:46:55;;;;;;;;;18.00;18.00;;;;;;;;5072714;28;51068;-56
2021/08/30 13:49:20;;;;;;;;;16.00;15.33;;;;;;;;5071991;28;51131;-57
2021/08/30 13:51:45;;;;;;;;;15.00;15.00;;;;;;;;5072053;28;51147;-57
2021/08/30 13:54:12;;;;;;;;;17.67;17.67;;;;;;;;5071829;28;51041;-56
2021/08/30 13:56:38;;;;;;;;;17.00;16.00;;;;;;;;5072178;28;51272;-56
2021/08/30 13:59:03;;;;;;;;;18.33;17.33;;;;;;;;5071710;28;50934;-56
2021/08/30 14:01:28;;;;;;;;;17.33;15.33;;;;;;;;5071835;28;50999;-57
2021/08/30 14:03:54;;;;;;;;;18.67;17.00;;;;;;;;5071794;28;51173;-56
2021/08/30 14:06:20;;;;;;;;;17.00;17.00;;;;;;;;5072217;28;50961;-56
2021/08/30 14:08:45;;;;;;;;;18.33;17.33;;;;;;;;5070640;28;51070;-56
2021/08/30 14:11:10;;;;;;;;;20.00;18.00;;;;;;;;5071081;28;50937;-55
2021/08/30 14:13:35;;;;;;;;;14.25;14.00;;;;;;;;5052631;28;51049;-57
2021/08/30 14:16:01;;;;;;;;;17.00;17.00;;;;;;;;5070882;28;50872;-56